SUR4085 SASA-SACO
Flight info
| Callsign | SUR4085 |
|---|---|
| Flight time | 1h 6m |
| Altitude | 33000 |
| Route | DCTO PONPI UW5 DONKA |
| Aircraft | E170/M-SDE2E3FGHIRWXY/LB1 |
Departure
| Time | 2026-04-26 17:23 |
|---|---|
| Airport | Martín Miguel de Güemes International Airport (SASA) |
Arrival
| Time | 2026-04-26 18:30 |
|---|---|
| Airport | Ingeniero Aeronáutico Ambrosio L.V. Taravella International Airport (SACO) |
| Time | Latitude | Longitude | Altitude | Speed | Heading |
|---|---|---|---|---|---|
| 2026-04-26 16:54 | -24.84459 | -65.47961 | 4091 ft | 0 kts | 20° |
| 2026-04-26 17:13 | -24.84462 | -65.47962 | 4091 ft | 1 kts | 356° |
| 2026-04-26 17:14 | -24.84470 | -65.47961 | 4091 ft | 1 kts | 346° |
| 2026-04-26 17:14 | -24.84498 | -65.47958 | 4091 ft | 2 kts | 332° |
| 2026-04-26 17:14 | -24.84509 | -65.47947 | 4091 ft | 2 kts | 306° |
| 2026-04-26 17:15 | -24.84515 | -65.47932 | 4091 ft | 0 kts | 289° |
| 2026-04-26 17:17 | -24.84515 | -65.47933 | 4091 ft | 0 kts | 287° |
| 2026-04-26 17:18 | -24.84515 | -65.47934 | 4091 ft | 0 kts | 286° |
| 2026-04-26 17:18 | -24.84514 | -65.47938 | 4091 ft | 1 kts | 286° |
| 2026-04-26 17:18 | -24.84511 | -65.47952 | 4091 ft | 2 kts | 281° |
| 2026-04-26 17:18 | -24.84509 | -65.47972 | 4091 ft | 2 kts | 271° |
| 2026-04-26 17:19 | -24.84518 | -65.48022 | 4091 ft | 3 kts | 253° |
| 2026-04-26 17:19 | -24.84526 | -65.48052 | 4091 ft | 4 kts | 252° |
| 2026-04-26 17:19 | -24.84536 | -65.48085 | 4091 ft | 4 kts | 251° |
| 2026-04-26 17:20 | -24.84547 | -65.48122 | 4091 ft | 5 kts | 251° |
| 2026-04-26 17:20 | -24.84551 | -65.48135 | 4091 ft | 5 kts | 252° |
| 2026-04-26 17:20 | -24.84571 | -65.48206 | 4091 ft | 6 kts | 252° |
| 2026-04-26 17:20 | -24.84585 | -65.48252 | 4091 ft | 6 kts | 251° |
| 2026-04-26 17:21 | -24.84599 | -65.48298 | 4091 ft | 6 kts | 251° |
| 2026-04-26 17:21 | -24.84622 | -65.48344 | 4091 ft | 7 kts | 225° |
| 2026-04-26 17:21 | -24.84660 | -65.48380 | 4091 ft | 7 kts | 221° |
| 2026-04-26 17:21 | -24.84688 | -65.48410 | 4091 ft | 4 kts | 225° |
| 2026-04-26 17:22 | -24.84714 | -65.48431 | 4091 ft | 4 kts | 195° |
| 2026-04-26 17:22 | -24.84720 | -65.48432 | 4091 ft | 0 kts | 191° |
| 2026-04-26 17:22 | -24.84722 | -65.48433 | 4091 ft | 4 kts | 191° |
| 2026-04-26 17:23 | -24.85010 | -65.48497 | 4091 ft | 80 kts | 191° |
| 2026-04-26 17:23 | -24.85777 | -65.48665 | 4091 ft | 143 kts | 190° |
| 2026-04-26 17:23 | -24.86916 | -65.48932 | 4249 ft | 178 kts | 194° |
| 2026-04-26 17:23 | -24.88076 | -65.49367 | 5046 ft | 174 kts | 202° |
| 2026-04-26 17:24 | -24.89152 | -65.49854 | 5760 ft | 173 kts | 198° |
| 2026-04-26 17:24 | -24.90344 | -65.50242 | 6122 ft | 181 kts | 186° |
| 2026-04-26 17:24 | -24.91671 | -65.50163 | 6525 ft | 199 kts | 170° |
| 2026-04-26 17:24 | -24.93097 | -65.49920 | 6966 ft | 217 kts | 173° |
| 2026-04-26 17:25 | -24.94650 | -65.49677 | 7295 ft | 226 kts | 170° |
| 2026-04-26 17:25 | -24.96194 | -65.49385 | 7653 ft | 225 kts | 169° |
| 2026-04-26 17:25 | -24.97742 | -65.49067 | 8009 ft | 227 kts | 168° |
| 2026-04-26 17:25 | -24.99371 | -65.48718 | 8453 ft | 248 kts | 168° |
| 2026-04-26 17:26 | -25.01137 | -65.48332 | 8959 ft | 266 kts | 168° |
| 2026-04-26 17:26 | -25.02972 | -65.47925 | 9434 ft | 273 kts | 167° |
| 2026-04-26 17:26 | -25.04852 | -65.47505 | 9880 ft | 277 kts | 167° |
| 2026-04-26 17:26 | -25.06761 | -65.47078 | 10318 ft | 280 kts | 167° |
| 2026-04-26 17:27 | -25.08683 | -65.46646 | 10778 ft | 282 kts | 168° |
| 2026-04-26 17:27 | -25.10606 | -65.46215 | 11261 ft | 284 kts | 168° |
| 2026-04-26 17:27 | -25.12555 | -65.45777 | 11731 ft | 288 kts | 168° |
| 2026-04-26 17:27 | -25.14526 | -65.45334 | 12176 ft | 292 kts | 168° |
| 2026-04-26 17:28 | -25.16530 | -65.44884 | 12663 ft | 294 kts | 169° |
| 2026-04-26 17:28 | -25.18565 | -65.44426 | 13152 ft | 299 kts | 168° |
| 2026-04-26 17:28 | -25.20605 | -65.43967 | 13624 ft | 302 kts | 169° |
| 2026-04-26 17:28 | -25.22677 | -65.43501 | 14085 ft | 304 kts | 169° |
| 2026-04-26 17:29 | -25.24761 | -65.43031 | 14544 ft | 308 kts | 169° |
| 2026-04-26 17:29 | -25.26172 | -65.42714 | 14837 ft | 310 kts | 170° |
| 2026-04-26 17:29 | -25.29006 | -65.42075 | 15480 ft | 316 kts | 170° |
| 2026-04-26 17:29 | -25.31184 | -65.41585 | 16014 ft | 326 kts | 171° |
| 2026-04-26 17:30 | -25.33469 | -65.41070 | 16504 ft | 337 kts | 171° |
| 2026-04-26 17:30 | -25.35787 | -65.40547 | 16969 ft | 346 kts | 171° |
| 2026-04-26 17:30 | -25.38178 | -65.40008 | 17465 ft | 355 kts | 172° |
| 2026-04-26 17:30 | -25.40614 | -65.39458 | 17954 ft | 363 kts | 172° |
| 2026-04-26 17:31 | -25.43148 | -65.38886 | 18459 ft | 371 kts | 173° |
| 2026-04-26 17:31 | -25.45702 | -65.38309 | 18947 ft | 378 kts | 173° |
| 2026-04-26 17:31 | -25.48278 | -65.37727 | 19440 ft | 385 kts | 173° |
| 2026-04-26 17:31 | -25.50929 | -65.37127 | 19925 ft | 390 kts | 174° |
| 2026-04-26 17:32 | -25.53630 | -65.36516 | 20416 ft | 396 kts | 174° |
| 2026-04-26 17:32 | -25.56335 | -65.35904 | 20886 ft | 400 kts | 175° |
| 2026-04-26 17:32 | -25.59061 | -65.35287 | 21323 ft | 405 kts | 175° |
| 2026-04-26 17:32 | -25.61862 | -65.34651 | 21662 ft | 406 kts | 175° |
| 2026-04-26 17:33 | -25.64635 | -65.34023 | 22021 ft | 409 kts | 176° |
| 2026-04-26 17:33 | -25.67431 | -65.33388 | 22384 ft | 407 kts | 176° |
| 2026-04-26 17:33 | -25.70178 | -65.32766 | 22739 ft | 410 kts | 176° |
| 2026-04-26 17:34 | -25.75804 | -65.31497 | 23462 ft | 413 kts | 178° |
| 2026-04-26 17:34 | -25.78656 | -65.30959 | 23833 ft | 416 kts | 179° |
| 2026-04-26 17:34 | -25.81525 | -65.30420 | 24195 ft | 420 kts | 179° |
| 2026-04-26 17:34 | -25.84391 | -65.29880 | 24566 ft | 421 kts | 179° |
| 2026-04-26 17:35 | -25.87297 | -65.29333 | 24928 ft | 425 kts | 179° |
| 2026-04-26 17:35 | -25.90241 | -65.28778 | 25297 ft | 427 kts | 179° |
| 2026-04-26 17:35 | -25.93168 | -65.28226 | 25661 ft | 430 kts | 179° |
| 2026-04-26 17:35 | -25.96113 | -65.27671 | 26027 ft | 432 kts | 179° |
| 2026-04-26 17:36 | -25.99124 | -65.27103 | 26397 ft | 435 kts | 179° |
| 2026-04-26 17:36 | -26.02102 | -65.26540 | 26760 ft | 436 kts | 179° |
| 2026-04-26 17:36 | -26.05117 | -65.25970 | 27125 ft | 437 kts | 179° |
| 2026-04-26 17:36 | -26.08093 | -65.25408 | 27414 ft | 442 kts | 180° |
| 2026-04-26 17:37 | -26.11158 | -65.24828 | 27711 ft | 444 kts | 180° |
| 2026-04-26 17:37 | -26.14209 | -65.24251 | 28006 ft | 447 kts | 180° |
| 2026-04-26 17:37 | -26.17274 | -65.23671 | 28288 ft | 451 kts | 180° |
| 2026-04-26 17:38 | -26.23506 | -65.22489 | 28871 ft | 456 kts | 180° |
| 2026-04-26 17:38 | -26.26669 | -65.21890 | 29174 ft | 458 kts | 180° |
| 2026-04-26 17:38 | -26.29800 | -65.21296 | 29469 ft | 460 kts | 180° |
| 2026-04-26 17:38 | -26.32948 | -65.20699 | 29770 ft | 463 kts | 180° |
| 2026-04-26 17:39 | -26.36166 | -65.20087 | 30075 ft | 465 kts | 180° |
| 2026-04-26 17:39 | -26.39329 | -65.19486 | 30376 ft | 467 kts | 180° |
| 2026-04-26 17:39 | -26.42541 | -65.18874 | 30678 ft | 467 kts | 180° |
| 2026-04-26 17:39 | -26.45764 | -65.18261 | 30985 ft | 468 kts | 180° |
| 2026-04-26 17:40 | -26.48963 | -65.17651 | 31285 ft | 468 kts | 181° |
| 2026-04-26 17:40 | -26.50029 | -65.17449 | 31387 ft | 469 kts | 181° |
| 2026-04-26 17:40 | -26.55425 | -65.16421 | 31893 ft | 471 kts | 181° |
| 2026-04-26 17:40 | -26.58630 | -65.15810 | 32193 ft | 472 kts | 181° |
| 2026-04-26 17:41 | -26.61868 | -65.15192 | 32499 ft | 473 kts | 181° |
| 2026-04-26 17:41 | -26.65145 | -65.14566 | 32805 ft | 473 kts | 181° |
| 2026-04-26 17:41 | -26.68373 | -65.13950 | 33007 ft | 476 kts | 181° |
| 2026-04-26 17:41 | -26.71681 | -65.13319 | 33009 ft | 481 kts | 181° |
| 2026-04-26 17:42 | -26.78273 | -65.12055 | 32997 ft | 482 kts | 181° |
| 2026-04-26 17:42 | -26.84870 | -65.10791 | 32998 ft | 479 kts | 181° |
| 2026-04-26 17:43 | -26.91396 | -65.09523 | 32996 ft | 474 kts | 182° |
| 2026-04-26 17:43 | -26.97912 | -65.08257 | 32992 ft | 475 kts | 182° |
| 2026-04-26 17:44 | -27.04389 | -65.06995 | 32983 ft | 473 kts | 182° |
| 2026-04-26 17:44 | -27.10911 | -65.05724 | 32985 ft | 473 kts | 182° |
| 2026-04-26 17:45 | -27.17392 | -65.04459 | 32968 ft | 476 kts | 182° |
| 2026-04-26 17:45 | -27.23879 | -65.03191 | 32988 ft | 473 kts | 182° |
| 2026-04-26 17:46 | -27.30432 | -65.01909 | 32973 ft | 477 kts | 182° |
| 2026-04-26 17:46 | -27.36946 | -65.00633 | 32972 ft | 474 kts | 182° |
| 2026-04-26 17:47 | -27.41243 | -64.99790 | 32972 ft | 472 kts | 182° |
| 2026-04-26 17:47 | -27.49917 | -64.98088 | 32973 ft | 475 kts | 182° |
| 2026-04-26 17:48 | -27.56391 | -64.96815 | 32973 ft | 473 kts | 182° |
| 2026-04-26 17:48 | -27.62853 | -64.95543 | 32973 ft | 469 kts | 183° |
| 2026-04-26 17:49 | -27.69300 | -64.94273 | 32981 ft | 473 kts | 183° |
| 2026-04-26 17:49 | -27.75773 | -64.93004 | 32975 ft | 474 kts | 184° |
| 2026-04-26 17:50 | -27.82307 | -64.91802 | 32976 ft | 472 kts | 184° |
| 2026-04-26 17:50 | -27.88762 | -64.90611 | 32977 ft | 474 kts | 184° |
| 2026-04-26 17:51 | -27.95233 | -64.89414 | 32981 ft | 467 kts | 184° |
| 2026-04-26 17:51 | -28.01655 | -64.88228 | 32985 ft | 470 kts | 184° |
| 2026-04-26 17:52 | -28.08116 | -64.87032 | 32988 ft | 470 kts | 184° |
| 2026-04-26 17:52 | -28.14540 | -64.85841 | 32985 ft | 471 kts | 184° |
| 2026-04-26 17:53 | -28.21036 | -64.84634 | 32982 ft | 470 kts | 184° |
| 2026-04-26 17:54 | -28.30714 | -64.82834 | 32991 ft | 469 kts | 184° |
| 2026-04-26 17:54 | -28.37139 | -64.81638 | 32996 ft | 469 kts | 184° |
| 2026-04-26 17:55 | -28.43591 | -64.80434 | 32999 ft | 470 kts | 184° |
| 2026-04-26 17:55 | -28.50041 | -64.79230 | 33001 ft | 467 kts | 184° |
| 2026-04-26 17:56 | -28.56431 | -64.78035 | 33002 ft | 466 kts | 184° |
| 2026-04-26 17:57 | -28.69346 | -64.75452 | 32998 ft | 473 kts | 182° |
| 2026-04-26 17:57 | -28.75797 | -64.74063 | 32991 ft | 474 kts | 182° |
| 2026-04-26 17:58 | -28.88687 | -64.71283 | 32989 ft | 471 kts | 182° |
| 2026-04-26 17:59 | -28.98379 | -64.69188 | 32984 ft | 470 kts | 182° |
| 2026-04-26 17:59 | -29.04849 | -64.67789 | 32983 ft | 473 kts | 182° |
| 2026-04-26 18:00 | -29.11246 | -64.66401 | 32990 ft | 469 kts | 182° |
| 2026-04-26 18:00 | -29.17690 | -64.65005 | 32990 ft | 472 kts | 182° |
| 2026-04-26 18:01 | -29.24143 | -64.63601 | 32998 ft | 469 kts | 182° |
| 2026-04-26 18:01 | -29.30570 | -64.62203 | 32999 ft | 470 kts | 182° |
| 2026-04-26 18:02 | -29.33710 | -64.61515 | 32754 ft | 455 kts | 182° |
| 2026-04-26 18:02 | -29.34735 | -64.61292 | 32624 ft | 450 kts | 182° |
| 2026-04-26 18:02 | -29.39728 | -64.60203 | 32004 ft | 427 kts | 183° |
| 2026-04-26 18:02 | -29.42598 | -64.59576 | 31624 ft | 414 kts | 183° |
| 2026-04-26 18:03 | -29.45416 | -64.58962 | 31239 ft | 405 kts | 183° |
| 2026-04-26 18:03 | -29.48157 | -64.58366 | 30873 ft | 401 kts | 183° |
| 2026-04-26 18:03 | -29.50919 | -64.57766 | 30542 ft | 405 kts | 182° |
| 2026-04-26 18:03 | -29.53683 | -64.57161 | 30187 ft | 403 kts | 182° |
| 2026-04-26 18:04 | -29.56436 | -64.56559 | 29819 ft | 402 kts | 182° |
| 2026-04-26 18:04 | -29.59182 | -64.55958 | 29464 ft | 400 kts | 181° |
| 2026-04-26 18:04 | -29.61894 | -64.55418 | 29100 ft | 394 kts | 183° |
| 2026-04-26 18:05 | -29.67256 | -64.54411 | 28384 ft | 387 kts | 182° |
| 2026-04-26 18:05 | -29.69905 | -64.53911 | 28016 ft | 385 kts | 182° |
| 2026-04-26 18:05 | -29.72548 | -64.53412 | 27645 ft | 381 kts | 182° |
| 2026-04-26 18:05 | -29.75161 | -64.52917 | 27269 ft | 377 kts | 182° |
| 2026-04-26 18:06 | -29.77753 | -64.52427 | 26868 ft | 378 kts | 181° |
| 2026-04-26 18:06 | -29.80322 | -64.51941 | 26238 ft | 377 kts | 181° |
| 2026-04-26 18:06 | -29.82896 | -64.51453 | 25621 ft | 373 kts | 180° |
| 2026-04-26 18:06 | -29.85466 | -64.50964 | 24993 ft | 369 kts | 180° |
| 2026-04-26 18:07 | -29.87950 | -64.50494 | 24375 ft | 365 kts | 179° |
| 2026-04-26 18:07 | -29.90454 | -64.50018 | 23735 ft | 361 kts | 179° |
| 2026-04-26 18:07 | -29.92917 | -64.49551 | 23090 ft | 357 kts | 178° |
| 2026-04-26 18:07 | -29.94534 | -64.49238 | 22646 ft | 356 kts | 177° |
| 2026-04-26 18:08 | -29.97769 | -64.48551 | 21763 ft | 352 kts | 176° |
| 2026-04-26 18:08 | -30.00151 | -64.48045 | 21108 ft | 349 kts | 176° |
| 2026-04-26 18:08 | -30.02540 | -64.47536 | 20453 ft | 345 kts | 176° |
| 2026-04-26 18:08 | -30.04865 | -64.47041 | 19808 ft | 342 kts | 176° |
| 2026-04-26 18:09 | -30.07192 | -64.46546 | 19162 ft | 340 kts | 176° |
| 2026-04-26 18:09 | -30.09510 | -64.46053 | 18526 ft | 337 kts | 176° |
| 2026-04-26 18:09 | -30.11812 | -64.45562 | 17899 ft | 334 kts | 176° |
| 2026-04-26 18:09 | -30.14089 | -64.45076 | 17260 ft | 332 kts | 176° |
| 2026-04-26 18:10 | -30.16357 | -64.44592 | 16631 ft | 330 kts | 175° |
| 2026-04-26 18:10 | -30.18606 | -64.44112 | 16006 ft | 328 kts | 175° |
| 2026-04-26 18:10 | -30.20831 | -64.43637 | 15393 ft | 327 kts | 175° |
| 2026-04-26 18:10 | -30.23068 | -64.43159 | 14771 ft | 325 kts | 175° |
| 2026-04-26 18:11 | -30.25266 | -64.42690 | 14161 ft | 324 kts | 175° |
| 2026-04-26 18:11 | -30.27481 | -64.42216 | 13546 ft | 323 kts | 175° |
| 2026-04-26 18:11 | -30.29677 | -64.41747 | 12952 ft | 321 kts | 174° |
| 2026-04-26 18:11 | -30.31856 | -64.41280 | 12355 ft | 320 kts | 174° |
| 2026-04-26 18:12 | -30.34039 | -64.40813 | 11749 ft | 318 kts | 173° |
| 2026-04-26 18:12 | -30.36206 | -64.40348 | 11176 ft | 314 kts | 173° |
| 2026-04-26 18:12 | -30.38308 | -64.39896 | 11012 ft | 297 kts | 173° |
| 2026-04-26 18:12 | -30.40300 | -64.39439 | 10730 ft | 288 kts | 165° |
| 2026-04-26 18:13 | -30.42023 | -64.38303 | 10508 ft | 281 kts | 146° |
| 2026-04-26 18:13 | -30.43544 | -64.36977 | 10257 ft | 272 kts | 146° |
| 2026-04-26 18:13 | -30.45042 | -64.35655 | 9988 ft | 264 kts | 146° |
| 2026-04-26 18:13 | -30.45984 | -64.34820 | 9815 ft | 259 kts | 145° |
| 2026-04-26 18:14 | -30.47857 | -64.33154 | 9462 ft | 250 kts | 145° |
| 2026-04-26 18:14 | -30.49230 | -64.31928 | 9186 ft | 243 kts | 145° |
| 2026-04-26 18:14 | -30.50547 | -64.30755 | 8913 ft | 242 kts | 144° |
| 2026-04-26 18:14 | -30.52001 | -64.29459 | 8755 ft | 275 kts | 144° |
| 2026-04-26 18:15 | -30.53541 | -64.28084 | 8541 ft | 281 kts | 144° |
| 2026-04-26 18:15 | -30.55067 | -64.26718 | 8305 ft | 279 kts | 144° |
| 2026-04-26 18:15 | -30.56603 | -64.25344 | 8052 ft | 277 kts | 144° |
| 2026-04-26 18:15 | -30.58131 | -64.23978 | 7799 ft | 275 kts | 144° |
| 2026-04-26 18:16 | -30.59769 | -64.22902 | 7542 ft | 268 kts | 171° |
| 2026-04-26 18:16 | -30.63433 | -64.22611 | 7083 ft | 265 kts | 180° |
| 2026-04-26 18:16 | -30.65290 | -64.22534 | 6826 ft | 264 kts | 179° |
| 2026-04-26 18:17 | -30.67133 | -64.22463 | 6573 ft | 263 kts | 180° |
| 2026-04-26 18:17 | -30.68962 | -64.22397 | 6324 ft | 262 kts | 180° |
| 2026-04-26 18:17 | -30.70779 | -64.22333 | 6065 ft | 261 kts | 179° |
| 2026-04-26 18:17 | -30.72588 | -64.22268 | 5973 ft | 258 kts | 180° |
| 2026-04-26 18:18 | -30.74398 | -64.22205 | 5969 ft | 259 kts | 179° |
| 2026-04-26 18:18 | -30.76190 | -64.22142 | 5969 ft | 260 kts | 179° |
| 2026-04-26 18:18 | -30.78004 | -64.22078 | 5967 ft | 256 kts | 180° |
| 2026-04-26 18:18 | -30.79742 | -64.22016 | 5942 ft | 237 kts | 180° |
| 2026-04-26 18:19 | -30.81312 | -64.21960 | 5936 ft | 219 kts | 180° |
| 2026-04-26 18:19 | -30.82789 | -64.21908 | 5930 ft | 200 kts | 180° |
| 2026-04-26 18:19 | -30.84112 | -64.21860 | 5943 ft | 182 kts | 180° |
| 2026-04-26 18:19 | -30.85313 | -64.21818 | 5986 ft | 167 kts | 181° |
| 2026-04-26 18:20 | -30.86493 | -64.21776 | 5972 ft | 170 kts | 179° |
| 2026-04-26 18:20 | -30.87690 | -64.21690 | 5942 ft | 172 kts | 179° |
| 2026-04-26 18:20 | -30.88899 | -64.21622 | 5926 ft | 180 kts | 179° |
| 2026-04-26 18:20 | -30.89313 | -64.21602 | 5925 ft | 181 kts | 180° |
| 2026-04-26 18:21 | -30.91435 | -64.21517 | 5879 ft | 183 kts | 180° |
| 2026-04-26 18:21 | -30.92731 | -64.21478 | 5837 ft | 183 kts | 181° |
| 2026-04-26 18:21 | -30.94008 | -64.21445 | 5794 ft | 183 kts | 181° |
| 2026-04-26 18:21 | -30.95272 | -64.21415 | 5756 ft | 182 kts | 181° |
| 2026-04-26 18:22 | -30.96545 | -64.21389 | 5715 ft | 182 kts | 181° |
| 2026-04-26 18:22 | -30.97824 | -64.21365 | 5519 ft | 183 kts | 181° |
| 2026-04-26 18:22 | -30.99101 | -64.21343 | 5297 ft | 180 kts | 181° |
| 2026-04-26 18:22 | -31.00339 | -64.21323 | 5069 ft | 177 kts | 181° |
| 2026-04-26 18:23 | -31.01561 | -64.21304 | 4974 ft | 173 kts | 181° |
| 2026-04-26 18:23 | -31.02766 | -64.21285 | 4974 ft | 175 kts | 181° |
| 2026-04-26 18:23 | -31.03998 | -64.21265 | 4975 ft | 176 kts | 181° |
| 2026-04-26 18:23 | -31.05217 | -64.21246 | 4973 ft | 177 kts | 181° |
| 2026-04-26 18:24 | -31.06420 | -64.21224 | 4933 ft | 167 kts | 181° |
| 2026-04-26 18:24 | -31.07575 | -64.21206 | 4760 ft | 166 kts | 181° |
| 2026-04-26 18:24 | -31.08723 | -64.21188 | 4584 ft | 166 kts | 180° |
| 2026-04-26 18:24 | -31.09894 | -64.21169 | 4385 ft | 165 kts | 180° |
| 2026-04-26 18:25 | -31.11041 | -64.21150 | 4162 ft | 164 kts | 180° |
| 2026-04-26 18:25 | -31.12181 | -64.21134 | 3944 ft | 162 kts | 180° |
| 2026-04-26 18:25 | -31.13257 | -64.21116 | 3862 ft | 149 kts | 179° |
| 2026-04-26 18:25 | -31.14271 | -64.21099 | 3984 ft | 142 kts | 180° |
| 2026-04-26 18:26 | -31.15282 | -64.21085 | 3901 ft | 147 kts | 180° |
| 2026-04-26 18:26 | -31.16252 | -64.21067 | 3859 ft | 136 kts | 180° |
| 2026-04-26 18:26 | -31.17206 | -64.21052 | 3881 ft | 136 kts | 180° |
| 2026-04-26 18:26 | -31.18171 | -64.21037 | 3785 ft | 140 kts | 180° |
| 2026-04-26 18:27 | -31.19142 | -64.21021 | 3619 ft | 138 kts | 180° |
| 2026-04-26 18:27 | -31.20101 | -64.21006 | 3441 ft | 135 kts | 180° |
| 2026-04-26 18:27 | -31.21028 | -64.20991 | 3270 ft | 132 kts | 179° |
| 2026-04-26 18:27 | -31.21940 | -64.20976 | 3098 ft | 131 kts | 179° |
| 2026-04-26 18:28 | -31.22852 | -64.20962 | 2926 ft | 129 kts | 179° |
| 2026-04-26 18:28 | -31.23748 | -64.20949 | 2753 ft | 127 kts | 179° |
| 2026-04-26 18:28 | -31.24623 | -64.20933 | 2584 ft | 127 kts | 178° |
| 2026-04-26 18:28 | -31.25529 | -64.20907 | 2404 ft | 130 kts | 178° |
| 2026-04-26 18:29 | -31.26448 | -64.20882 | 2210 ft | 134 kts | 179° |
| 2026-04-26 18:29 | -31.27391 | -64.20889 | 1998 ft | 136 kts | 179° |
| 2026-04-26 18:29 | -31.28347 | -64.20866 | 1848 ft | 137 kts | 179° |
| 2026-04-26 18:29 | -31.29305 | -64.20862 | 1662 ft | 137 kts | 179° |
| 2026-04-26 18:30 | -31.30209 | -64.20846 | 1612 ft | 94 kts | 179° |
| 2026-04-26 18:30 | -31.30575 | -64.20840 | 1611 ft | 33 kts | 179° |
| 2026-04-26 18:30 | -31.30797 | -64.20837 | 1611 ft | 28 kts | 179° |
| 2026-04-26 18:30 | -31.30958 | -64.20835 | 1611 ft | 19 kts | 179° |
| 2026-04-26 18:31 | -31.31078 | -64.20833 | 1611 ft | 15 kts | 179° |
| 2026-04-26 18:31 | -31.31173 | -64.20830 | 1611 ft | 13 kts | 178° |
| 2026-04-26 18:31 | -31.31257 | -64.20830 | 1611 ft | 11 kts | 179° |
| 2026-04-26 18:31 | -31.31332 | -64.20829 | 1611 ft | 10 kts | 179° |
| 2026-04-26 18:32 | -31.31400 | -64.20828 | 1611 ft | 9 kts | 179° |
| 2026-04-26 18:32 | -31.31455 | -64.20853 | 1611 ft | 6 kts | 243° |
| 2026-04-26 18:32 | -31.31463 | -64.20885 | 1611 ft | 1 kts | 273° |
| 2026-04-26 18:32 | -31.31464 | -64.20898 | 1611 ft | 2 kts | 268° |
| 2026-04-26 18:33 | -31.31464 | -64.20915 | 1611 ft | 2 kts | 267° |
| 2026-04-26 18:33 | -31.31465 | -64.20938 | 1611 ft | 3 kts | 268° |
| 2026-04-26 18:33 | -31.31466 | -64.20966 | 1611 ft | 3 kts | 268° |
| 2026-04-26 18:33 | -31.31466 | -64.20998 | 1611 ft | 4 kts | 270° |
| 2026-04-26 18:34 | -31.31465 | -64.21036 | 1611 ft | 4 kts | 271° |
| 2026-04-26 18:34 | -31.31456 | -64.21074 | 1611 ft | 4 kts | 313° |
| 2026-04-26 18:34 | -31.31425 | -64.21091 | 1611 ft | 4 kts | 344° |
| 2026-04-26 18:34 | -31.31402 | -64.21102 | 1611 ft | 2 kts | 292° |
| 2026-04-26 18:35 | -31.31405 | -64.21123 | 1611 ft | 2 kts | 255° |
| 2026-04-26 18:35 | -31.31407 | -64.21146 | 1611 ft | 2 kts | 269° |
| 2026-04-26 18:35 | -31.31407 | -64.21163 | 1611 ft | 2 kts | 269° |
| 2026-04-26 18:35 | -31.31407 | -64.21178 | 1611 ft | 1 kts | 268° |
| 2026-04-26 18:36 | -31.31407 | -64.21182 | 1611 ft | 0 kts | 269° |